createdAt,value
2018-06-25T00:02:28.733Z,15.23
2018-06-25T00:04:57.990Z,15.24
2018-06-25T00:07:27.205Z,15.21
2018-06-25T00:09:56.605Z,15.20
2018-06-25T00:12:25.785Z,15.19
2018-06-25T00:14:55.022Z,15.18
2018-06-25T00:17:24.295Z,15.16
2018-06-25T00:19:53.502Z,15.14
2018-06-25T00:22:22.711Z,15.09
2018-06-25T00:24:51.975Z,15.07
2018-06-25T00:27:21.189Z,15.02
2018-06-25T00:29:50.387Z,14.99
2018-06-25T00:32:19.590Z,14.89
2018-06-25T00:34:48.774Z,14.89
2018-06-25T00:37:18.180Z,14.89
2018-06-25T00:39:47.368Z,14.81
2018-06-25T00:42:16.577Z,14.83
2018-06-25T00:44:45.794Z,14.79
2018-06-25T00:47:15.005Z,14.71
2018-06-25T00:49:44.177Z,14.68
2018-06-25T00:52:13.404Z,14.63
2018-06-25T00:54:42.707Z,14.63
2018-06-25T00:57:11.987Z,14.57
2018-06-25T00:59:57.471Z,14.60
2018-06-25T01:02:26.669Z,14.61
2018-06-25T01:04:55.884Z,14.66
2018-06-25T01:07:25.066Z,14.69
2018-06-25T01:09:54.287Z,14.76
2018-06-25T01:12:23.560Z,14.75
2018-06-25T01:14:52.886Z,14.68
2018-06-25T01:17:22.043Z,14.68
2018-06-25T01:19:51.244Z,14.68
2018-06-25T01:22:20.442Z,14.67
2018-06-25T01:24:49.645Z,14.68
2018-06-25T01:27:18.857Z,14.67
2018-06-25T01:29:48.027Z,14.60
2018-06-25T01:32:17.235Z,14.51
2018-06-25T01:34:46.449Z,14.50
2018-06-25T01:37:15.667Z,14.46
2018-06-25T01:39:44.947Z,14.44
2018-06-25T01:42:14.175Z,14.37
2018-06-25T01:44:43.345Z,14.29
2018-06-25T01:47:12.510Z,14.23
2018-06-25T01:49:41.881Z,14.22
2018-06-25T01:52:11.042Z,14.18
2018-06-25T01:54:40.257Z,13.99
2018-06-25T01:57:09.504Z,13.92
2018-06-25T01:59:38.660Z,13.91
2018-06-25T02:02:08.129Z,14.00
2018-06-25T02:04:37.264Z,13.97
2018-06-25T02:07:06.413Z,13.92
2018-06-25T02:09:35.593Z,13.89
2018-06-25T02:12:04.792Z,13.83
2018-06-25T02:14:34.038Z,13.81
2018-06-25T02:17:03.188Z,13.76
2018-06-25T02:19:32.418Z,13.73
2018-06-25T02:22:01.582Z,13.64
2018-06-25T02:24:30.801Z,13.65
2018-06-25T02:27:00.900Z,13.66
2018-06-25T02:29:30.066Z,13.55
2018-06-25T02:31:59.330Z,13.61
2018-06-25T02:34:28.521Z,13.64
2018-06-25T02:36:57.824Z,13.56
2018-06-25T02:39:26.993Z,13.56
2018-06-25T02:41:56.292Z,13.50
2018-06-25T02:44:25.470Z,13.51
2018-06-25T02:46:54.604Z,13.55
2018-06-25T02:49:24.045Z,13.62
2018-06-25T02:51:53.186Z,13.67
2018-06-25T02:54:22.345Z,13.71
2018-06-25T02:56:51.590Z,13.76
2018-06-25T02:59:20.799Z,13.77
2018-06-25T03:01:49.930Z,13.66
2018-06-25T03:04:19.116Z,13.60
2018-06-25T03:06:48.298Z,13.58
2018-06-25T03:09:17.402Z,13.62
2018-06-25T03:11:46.580Z,13.60
2018-06-25T03:14:15.727Z,13.60
2018-06-25T03:16:44.943Z,13.58
2018-06-25T03:19:14.214Z,13.58
2018-06-25T03:21:43.396Z,13.59
2018-06-25T03:24:12.584Z,13.60
2018-06-25T03:26:41.874Z,13.63
2018-06-25T03:29:11.138Z,13.65
2018-06-25T03:31:40.354Z,13.47
2018-06-25T03:34:09.542Z,13.35
2018-06-25T03:36:38.764Z,13.34
2018-06-25T03:39:09.566Z,13.37
2018-06-25T03:41:38.782Z,13.43
2018-06-25T03:44:07.980Z,13.47
2018-06-25T03:46:37.190Z,13.46
2018-06-25T03:49:06.426Z,13.50
2018-06-25T03:51:35.794Z,13.57
2018-06-25T03:54:04.944Z,13.62
2018-06-25T03:56:34.174Z,13.57
2018-06-25T03:59:03.394Z,13.57
2018-06-25T04:01:32.531Z,13.65
2018-06-25T04:04:01.908Z,13.77
2018-06-25T04:06:31.110Z,13.86
2018-06-25T04:09:00.326Z,13.93
2018-06-25T04:11:29.500Z,13.95
2018-06-25T04:13:58.730Z,13.95
2018-06-25T04:16:27.874Z,13.98
2018-06-25T04:19:01.587Z,14.01
2018-06-25T04:21:30.815Z,13.97
2018-06-25T04:24:00.384Z,14.01
2018-06-25T04:26:29.991Z,14.01
2018-06-25T04:28:59.246Z,14.01
2018-06-25T04:31:29.184Z,13.94
2018-06-25T04:33:58.768Z,13.94
2018-06-25T04:36:27.954Z,13.98
2018-06-25T04:38:57.230Z,13.97
2018-06-25T04:41:26.430Z,13.98
2018-06-25T04:43:55.604Z,14.03
2018-06-25T04:46:24.807Z,14.08
2018-06-25T04:48:53.989Z,14.13
2018-06-25T04:51:23.230Z,14.21
2018-06-25T04:53:52.436Z,14.29
2018-06-25T04:56:21.664Z,14.36
2018-06-25T04:58:50.858Z,14.34
2018-06-25T05:01:20.113Z,14.32
2018-06-25T05:03:49.286Z,14.40
2018-06-25T05:06:18.516Z,14.40
2018-06-25T05:08:47.694Z,14.40
2018-06-25T05:11:16.884Z,14.45
2018-06-25T05:13:46.081Z,14.47
2018-06-25T05:16:15.375Z,14.54
2018-06-25T05:18:44.590Z,14.56
2018-06-25T05:21:14.254Z,14.54
2018-06-25T05:23:43.530Z,14.59
2018-06-25T05:26:12.882Z,14.61
2018-06-25T05:28:42.078Z,14.66
2018-06-25T05:31:11.250Z,14.73
2018-06-25T05:33:40.980Z,14.76
2018-06-25T05:36:10.174Z,14.85
2018-06-25T05:38:39.342Z,14.97
2018-06-25T05:41:08.573Z,14.99
2018-06-25T05:43:37.728Z,15.07
2018-06-25T05:46:07.336Z,15.11
2018-06-25T05:48:36.490Z,15.08
2018-06-25T05:51:05.670Z,15.08
2018-06-25T05:53:34.979Z,15.14
2018-06-25T05:56:04.753Z,15.16
2018-06-25T05:58:33.962Z,15.33
2018-06-25T06:01:03.203Z,15.41
2018-06-25T06:03:32.391Z,15.29
2018-06-25T06:06:01.597Z,15.22
2018-06-25T06:08:30.911Z,15.24
2018-06-25T06:11:00.218Z,15.18
2018-06-25T06:13:29.383Z,15.31
2018-06-25T06:15:58.600Z,15.46
2018-06-25T06:18:27.955Z,15.54
2018-06-25T06:20:57.743Z,15.51
2018-06-25T06:23:27.093Z,15.58
2018-06-25T06:25:56.559Z,15.69
2018-06-25T06:28:25.729Z,15.59
2018-06-25T06:30:55.115Z,15.47
2018-06-25T06:33:24.233Z,15.34
2018-06-25T06:35:53.444Z,15.13
2018-06-25T06:38:22.669Z,14.92
2018-06-25T06:40:51.916Z,15.03
2018-06-25T06:43:21.226Z,15.01
2018-06-25T06:45:50.409Z,15.09
2018-06-25T06:48:19.614Z,15.20
2018-06-25T06:52:13.169Z,15.25
2018-06-25T06:54:42.603Z,15.29
2018-06-25T06:57:11.940Z,15.42
2018-06-25T06:59:41.277Z,15.52
2018-06-25T07:02:10.409Z,15.65
2018-06-25T07:04:39.608Z,15.66
2018-06-25T07:07:08.814Z,15.66
2018-06-25T07:09:38.044Z,15.90
2018-06-25T07:12:07.316Z,16.05
2018-06-25T07:14:36.544Z,16.19
2018-06-25T07:17:05.750Z,16.22
2018-06-25T07:19:34.965Z,16.34
2018-06-25T07:22:04.382Z,16.29
2018-06-25T07:24:33.519Z,16.17
2018-06-25T07:27:02.861Z,16.09
2018-06-25T07:29:32.008Z,16.13
2018-06-25T07:32:01.094Z,16.16
2018-06-25T07:34:30.412Z,16.34
2018-06-25T07:36:59.585Z,16.46
2018-06-25T07:39:28.738Z,16.46
2018-06-25T07:41:57.909Z,16.47
2018-06-25T07:44:27.068Z,16.50
2018-06-25T07:46:56.332Z,16.61
2018-06-25T07:49:25.386Z,16.56
2018-06-25T07:51:54.624Z,16.47
2018-06-25T07:54:23.811Z,16.49
2018-06-25T07:56:53.018Z,16.42
2018-06-25T07:59:22.199Z,16.35
2018-06-25T08:01:51.437Z,16.32
2018-06-25T08:04:20.703Z,16.21
2018-06-25T08:06:49.885Z,16.23
2018-06-25T08:09:19.036Z,16.36
2018-06-25T08:11:48.240Z,16.56
2018-06-25T08:14:17.489Z,16.74
2018-06-25T08:16:46.764Z,16.90
2018-06-25T08:19:15.945Z,17.11
2018-06-25T08:21:45.201Z,17.22
2018-06-25T08:24:14.386Z,17.28
2018-06-25T08:26:43.595Z,17.35
2018-06-25T08:29:12.888Z,17.55
2018-06-25T08:31:42.097Z,17.76
2018-06-25T08:34:11.277Z,17.86
2018-06-25T08:36:40.405Z,17.73
2018-06-25T08:39:11.650Z,17.86
2018-06-25T08:41:41.192Z,17.71
2018-06-25T08:44:10.345Z,17.74
2018-06-25T08:46:39.965Z,17.90
2018-06-25T08:49:09.628Z,18.02
2018-06-25T08:51:38.801Z,17.87
2018-06-25T08:54:08.065Z,17.96
2018-06-25T08:56:38.239Z,18.05
2018-06-25T08:59:07.601Z,18.06
2018-06-25T09:01:36.898Z,18.11
2018-06-25T09:04:06.335Z,18.22
2018-06-25T09:06:35.509Z,18.35
2018-06-25T09:09:07.032Z,18.23
2018-06-25T09:11:36.361Z,18.18
2018-06-25T09:14:05.744Z,18.13
2018-06-25T09:16:34.930Z,18.16
2018-06-25T09:19:04.168Z,18.21
2018-06-25T09:21:33.404Z,18.34
2018-06-25T09:24:02.626Z,18.38
2018-06-25T09:26:31.924Z,18.38
2018-06-25T09:29:01.297Z,18.43
2018-06-25T09:31:30.535Z,18.27
2018-06-25T09:33:59.760Z,18.21
2018-06-25T09:36:28.916Z,18.33
2018-06-25T09:38:58.088Z,18.44
2018-06-25T09:41:27.361Z,18.64
2018-06-25T09:43:56.592Z,18.79
2018-06-25T09:46:25.794Z,18.53
2018-06-25T09:48:55.072Z,18.60
2018-06-25T09:51:24.222Z,18.82
2018-06-25T09:53:53.405Z,18.97
2018-06-25T09:56:23.125Z,19.01
2018-06-25T09:58:52.444Z,19.14
2018-06-25T10:01:21.600Z,18.96
2018-06-25T10:03:50.890Z,18.97
2018-06-25T10:06:20.055Z,19.01
2018-06-25T10:08:49.214Z,19.06
2018-06-25T10:11:18.396Z,19.12
2018-06-25T10:13:54.367Z,19.22
2018-06-25T10:16:23.845Z,19.32
2018-06-25T10:18:53.063Z,19.49
2018-06-25T10:21:22.382Z,19.49
2018-06-25T10:23:51.620Z,19.44
2018-06-25T10:26:20.789Z,19.55
2018-06-25T10:28:49.956Z,19.56
2018-06-25T10:31:19.262Z,19.63
2018-06-25T10:33:48.381Z,19.73
2018-06-25T10:36:17.834Z,19.81
2018-06-25T10:38:47.078Z,20.05
2018-06-25T10:41:16.208Z,20.11
2018-06-25T10:43:45.424Z,20.19
2018-06-25T10:46:14.602Z,20.33
2018-06-25T10:48:43.835Z,20.24
2018-06-25T10:51:12.995Z,20.07
2018-06-25T10:53:42.143Z,19.99
2018-06-25T10:56:11.285Z,19.95
2018-06-25T10:58:40.601Z,19.89
2018-06-25T11:01:09.865Z,19.98
2018-06-25T11:03:38.959Z,20.10
2018-06-25T11:06:09.504Z,20.17
2018-06-25T11:08:40.000Z,20.29
2018-06-25T11:11:09.663Z,20.43
2018-06-25T11:13:38.870Z,20.37
2018-06-25T11:16:08.074Z,20.10
2018-06-25T11:18:37.230Z,19.97
2018-06-25T11:21:06.513Z,19.83
2018-06-25T11:23:35.688Z,19.69
2018-06-25T11:26:04.907Z,19.71
2018-06-25T11:28:34.144Z,19.80
2018-06-25T11:31:03.367Z,19.93
2018-06-25T11:33:32.664Z,20.06
2018-06-25T11:36:01.964Z,20.27
2018-06-25T11:38:31.171Z,20.53
2018-06-25T11:41:00.331Z,20.56
2018-06-25T11:43:29.693Z,20.67
2018-06-25T11:45:59.021Z,20.92
2018-06-25T11:48:28.163Z,21.06
2018-06-25T11:50:57.351Z,21.22
2018-06-25T11:53:26.483Z,21.42
2018-06-25T11:55:55.783Z,21.41
2018-06-25T11:58:24.961Z,21.49
2018-06-25T12:00:54.226Z,21.54
2018-06-25T12:03:23.397Z,21.28
2018-06-25T12:05:52.551Z,21.33
2018-06-25T12:08:21.762Z,21.13
2018-06-25T12:10:51.057Z,21.00
2018-06-25T12:13:20.391Z,20.87
2018-06-25T12:15:49.651Z,20.76
2018-06-25T12:18:18.814Z,20.52
2018-06-25T12:20:48.049Z,20.52
2018-06-25T12:23:17.179Z,20.56
2018-06-25T12:25:46.403Z,20.45
2018-06-25T12:28:15.628Z,20.41
2018-06-25T12:30:44.857Z,20.34
2018-06-25T12:33:14.026Z,20.25
2018-06-25T12:35:43.164Z,20.22
2018-06-25T12:38:12.406Z,20.12
2018-06-25T12:40:41.816Z,19.93
2018-06-25T12:43:11.037Z,19.93
2018-06-25T12:45:40.089Z,19.90
2018-06-25T12:48:09.407Z,19.92
2018-06-25T12:50:38.606Z,20.00
2018-06-25T12:53:07.877Z,20.10
2018-06-25T12:55:37.133Z,20.18
2018-06-25T12:58:06.537Z,20.29
2018-06-25T13:00:35.711Z,20.32
2018-06-25T13:03:06.169Z,20.40
2018-06-25T13:05:35.291Z,20.56
2018-06-25T13:08:04.456Z,20.73
2018-06-25T13:10:33.657Z,20.84
2018-06-25T13:13:02.927Z,20.99
2018-06-25T13:15:32.123Z,21.16
2018-06-25T13:18:01.310Z,21.24
2018-06-25T13:20:30.537Z,21.33
2018-06-25T13:22:59.843Z,21.66
2018-06-25T13:25:29.073Z,22.16
2018-06-25T13:27:58.321Z,22.40
2018-06-25T13:30:27.737Z,22.39
2018-06-25T13:32:56.917Z,22.28
2018-06-25T13:35:26.156Z,22.44
2018-06-25T13:37:55.351Z,22.57
2018-06-25T13:40:24.538Z,22.76
2018-06-25T13:42:53.797Z,22.87
2018-06-25T13:45:22.960Z,22.95
2018-06-25T13:47:52.243Z,23.04
2018-06-25T13:50:21.473Z,22.93
2018-06-25T13:52:50.642Z,22.95
2018-06-25T13:55:19.876Z,22.90
2018-06-25T13:57:49.046Z,22.64
2018-06-25T14:00:18.282Z,22.45
2018-06-25T14:02:47.436Z,22.29
2018-06-25T14:05:16.636Z,22.30
2018-06-25T14:07:45.792Z,21.91
2018-06-25T14:10:15.043Z,21.98
2018-06-25T14:12:44.233Z,22.21
2018-06-25T14:15:13.450Z,22.50
2018-06-25T14:17:42.878Z,22.67
2018-06-25T14:20:12.049Z,22.64
2018-06-25T14:22:41.386Z,22.46
2018-06-25T14:25:10.563Z,22.22
2018-06-25T14:27:44.968Z,22.08
2018-06-25T14:30:19.336Z,21.88
2018-06-25T14:32:55.614Z,21.61
2018-06-25T14:35:24.864Z,21.45
2018-06-25T14:37:54.015Z,21.35
2018-06-25T14:40:23.186Z,21.23
2018-06-25T14:42:52.368Z,21.20
2018-06-25T14:45:21.541Z,21.13
2018-06-25T14:47:50.750Z,21.18
2018-06-25T14:50:20.007Z,21.18
2018-06-25T14:52:49.229Z,21.23
2018-06-25T14:55:18.427Z,21.30
2018-06-25T14:57:47.645Z,21.46
2018-06-25T15:00:20.617Z,21.59
2018-06-25T15:02:50.813Z,21.44
2018-06-25T15:05:20.047Z,21.46
2018-06-25T15:07:49.271Z,21.79
2018-06-25T15:10:18.445Z,21.83
2018-06-25T15:12:47.718Z,21.90
2018-06-25T15:15:16.929Z,22.01
2018-06-25T15:17:46.183Z,22.10
2018-06-25T15:20:15.411Z,22.15
2018-06-25T15:22:44.672Z,22.18
2018-06-25T15:25:13.911Z,22.27
2018-06-25T15:27:43.110Z,22.26
2018-06-25T15:30:12.299Z,22.32
2018-06-25T15:32:41.900Z,22.34
2018-06-25T15:35:11.073Z,22.42
2018-06-25T15:37:40.291Z,22.26
2018-06-25T15:40:09.495Z,22.21
2018-06-25T15:42:38.696Z,22.16
2018-06-25T15:45:07.961Z,22.10
2018-06-25T15:47:37.133Z,21.99
2018-06-25T15:50:06.365Z,21.95
2018-06-25T15:52:35.564Z,21.87
2018-06-25T15:55:04.870Z,21.85
2018-06-25T15:57:34.044Z,21.69
2018-06-25T16:00:03.411Z,21.57
2018-06-25T16:02:32.530Z,21.48
2018-06-25T16:05:01.750Z,21.43
2018-06-25T16:07:30.933Z,21.44
2018-06-25T16:10:00.125Z,21.43
2018-06-25T16:12:29.300Z,21.36
2018-06-25T16:14:58.470Z,21.25
2018-06-25T16:17:27.654Z,21.21
2018-06-25T16:19:56.835Z,21.27
2018-06-25T16:22:25.970Z,21.23
2018-06-25T16:24:55.141Z,21.26
2018-06-25T16:27:24.349Z,21.29
2018-06-25T16:29:53.518Z,21.38
2018-06-25T16:32:22.692Z,21.46
2018-06-25T16:34:51.913Z,21.47
2018-06-25T16:37:21.060Z,21.44
2018-06-25T16:39:50.234Z,21.43
2018-06-25T16:42:19.567Z,21.41
2018-06-25T16:44:48.723Z,21.34
2018-06-25T16:47:17.905Z,21.29
2018-06-25T16:49:47.132Z,21.30
2018-06-25T16:52:16.336Z,21.17
2018-06-25T16:54:45.501Z,21.13
2018-06-25T16:57:14.692Z,21.07
2018-06-25T16:59:43.925Z,20.99
2018-06-25T17:02:13.124Z,20.93
2018-06-25T17:04:42.358Z,20.90
2018-06-25T17:07:11.604Z,20.81
2018-06-25T17:09:40.966Z,20.82
2018-06-25T17:12:10.222Z,20.77
2018-06-25T17:14:39.548Z,20.70
2018-06-25T17:17:08.838Z,20.61
2018-06-25T17:19:38.116Z,20.54
2018-06-25T17:22:07.470Z,20.42
2018-06-25T17:24:36.792Z,20.29
2018-06-25T17:27:06.193Z,20.25
2018-06-25T17:29:35.442Z,20.20
2018-06-25T17:32:04.637Z,20.21
2018-06-25T17:34:33.862Z,20.19
2018-06-25T17:37:03.111Z,20.17
2018-06-25T17:39:32.409Z,20.13
2018-06-25T17:42:01.643Z,20.08
2018-06-25T17:44:30.819Z,20.04
2018-06-25T17:47:00.818Z,20.00
2018-06-25T17:49:29.999Z,20.02
2018-06-25T17:51:59.228Z,20.10
2018-06-25T17:54:28.447Z,20.16
2018-06-25T17:56:57.662Z,20.17
2018-06-25T17:59:26.908Z,20.16
2018-06-25T18:01:56.056Z,20.11
2018-06-25T18:04:25.368Z,20.12
2018-06-25T18:06:54.589Z,20.11
2018-06-25T18:09:24.165Z,20.08
2018-06-25T18:11:53.602Z,20.02
2018-06-25T18:14:23.279Z,19.93
2018-06-25T18:16:52.891Z,19.86
2018-06-25T18:19:22.638Z,19.76
2018-06-25T18:21:52.479Z,19.69
2018-06-25T18:24:21.821Z,19.61
2018-06-25T18:26:52.000Z,19.54
2018-06-25T18:29:21.351Z,19.43
2018-06-25T18:31:50.953Z,19.30
2018-06-25T18:34:20.754Z,19.18
2018-06-25T18:36:50.420Z,19.06
2018-06-25T18:39:20.225Z,19.00
2018-06-25T18:41:49.822Z,18.97
2018-06-25T18:57:18.709Z,18.80
2018-06-25T18:59:48.209Z,18.44
2018-06-25T19:02:17.644Z,18.39
2018-06-25T19:04:46.970Z,18.30
2018-06-25T19:07:16.192Z,18.22
2018-06-25T19:09:45.509Z,18.15
2018-06-25T19:12:14.695Z,18.07
2018-06-25T19:14:43.892Z,18.01
2018-06-25T19:17:13.214Z,17.96
2018-06-25T19:19:42.423Z,17.92
2018-06-25T19:22:11.960Z,17.85
2018-06-25T19:24:41.229Z,17.80
2018-06-25T19:27:10.503Z,17.73
2018-06-25T19:29:39.738Z,17.66
2018-06-25T19:32:09.055Z,17.64
2018-06-25T19:34:38.454Z,17.61
2018-06-25T19:37:07.752Z,17.59
2018-06-25T19:39:37.092Z,17.58
2018-06-25T19:42:06.386Z,17.57
2018-06-25T19:44:36.083Z,17.53
2018-06-25T19:47:05.910Z,17.51
2018-06-25T19:49:35.260Z,17.48
2018-06-25T19:52:04.643Z,17.42
2018-06-25T19:54:34.352Z,17.40
2018-06-25T19:57:04.171Z,17.35
2018-06-25T19:59:33.673Z,17.32
2018-06-25T20:02:02.954Z,17.28
2018-06-25T20:04:32.334Z,17.24
2018-06-25T20:07:02.119Z,17.19
2018-06-25T20:09:31.347Z,17.14
2018-06-25T20:12:00.555Z,17.09
2018-06-25T20:14:29.822Z,17.05
2018-06-25T20:16:58.988Z,16.99
2018-06-25T20:19:28.207Z,16.97
2018-06-25T20:21:57.441Z,16.94
2018-06-25T20:24:26.633Z,16.88
2018-06-25T20:26:55.852Z,16.81
2018-06-25T20:29:25.039Z,16.73
2018-06-25T20:31:54.584Z,16.65
2018-06-25T20:34:24.367Z,16.61
2018-06-25T20:36:53.900Z,16.57
2018-06-25T20:39:23.140Z,16.56
2018-06-25T20:41:52.365Z,16.54
2018-06-25T20:44:21.756Z,16.54
2018-06-25T20:46:50.930Z,16.53
2018-06-25T20:49:20.144Z,16.51
2018-06-25T20:51:49.387Z,16.48
2018-06-25T20:54:18.693Z,16.41
2018-06-25T20:56:47.908Z,16.39
2018-06-25T20:59:17.050Z,16.35
2018-06-25T21:01:46.176Z,16.33
2018-06-25T21:04:15.298Z,16.29
2018-06-25T21:06:44.557Z,16.29
2018-06-25T21:09:13.847Z,16.23
2018-06-25T21:11:43.282Z,16.19
2018-06-25T21:14:12.446Z,16.12
2018-06-25T21:16:41.660Z,16.12
2018-06-25T21:19:10.823Z,16.08
2018-06-25T21:21:40.079Z,16.05
2018-06-25T21:24:09.217Z,15.99
2018-06-25T21:26:38.425Z,15.94
2018-06-25T21:29:07.938Z,15.93
2018-06-25T21:31:37.158Z,15.93
2018-06-25T21:34:06.528Z,15.95
2018-06-25T21:36:35.741Z,15.93
2018-06-25T21:39:07.136Z,15.94
2018-06-25T21:41:36.348Z,15.94
2018-06-25T21:44:05.713Z,15.92
2018-06-25T21:46:34.926Z,15.90
2018-06-25T21:49:04.133Z,15.89
2018-06-25T21:51:33.313Z,15.86
2018-06-25T21:54:02.475Z,15.86
2018-06-25T21:56:31.652Z,15.81
2018-06-25T21:59:00.866Z,15.75
2018-06-25T22:01:30.037Z,15.70
2018-06-25T22:03:59.271Z,15.63
2018-06-25T22:06:28.406Z,15.54
2018-06-25T22:08:57.603Z,15.50
2018-06-25T22:11:26.813Z,15.41
2018-06-25T22:13:55.964Z,15.35
2018-06-25T22:16:25.211Z,15.33
2018-06-25T22:18:54.461Z,15.31
2018-06-25T22:21:23.587Z,15.28
2018-06-25T22:23:52.709Z,15.21
2018-06-25T22:26:21.848Z,15.18
2018-06-25T22:28:51.054Z,15.15
2018-06-25T22:31:20.271Z,15.12
2018-06-25T22:33:49.440Z,15.06
2018-06-25T22:36:18.665Z,15.04
2018-06-25T22:38:47.826Z,14.99
2018-06-25T22:41:17.003Z,14.93
2018-06-25T22:43:46.491Z,14.88
2018-06-25T22:46:15.661Z,14.85
2018-06-25T22:48:44.855Z,14.78
2018-06-25T22:51:14.117Z,14.77
2018-06-25T22:53:43.296Z,14.73
2018-06-25T22:56:12.461Z,14.72
2018-06-25T22:58:41.648Z,14.69
2018-06-25T23:01:10.850Z,14.68
2018-06-25T23:03:40.082Z,14.62
2018-06-25T23:06:09.196Z,14.57
2018-06-25T23:08:38.352Z,14.55
2018-06-25T23:11:07.651Z,14.50
2018-06-25T23:13:36.874Z,14.48
2018-06-25T23:16:06.044Z,14.48
2018-06-25T23:18:35.533Z,14.46
2018-06-25T23:21:04.713Z,14.38
2018-06-25T23:23:33.985Z,14.35
2018-06-25T23:26:03.159Z,14.33
2018-06-25T23:28:32.334Z,14.32
2018-06-25T23:31:01.579Z,14.30
2018-06-25T23:33:30.771Z,14.27
2018-06-25T23:35:59.955Z,14.23
2018-06-25T23:38:29.170Z,14.20
2018-06-25T23:40:58.433Z,14.17
2018-06-25T23:43:27.599Z,14.14
2018-06-25T23:45:56.797Z,14.06
2018-06-25T23:48:25.935Z,14.01
2018-06-25T23:50:55.094Z,14.00
2018-06-25T23:53:24.256Z,13.97
2018-06-25T23:55:53.424Z,13.95
2018-06-25T23:58:22.613Z,13.94
